Time;durP1;ratioP1;P1;durP2;ratioP2;P2;SDS_P1;SDS_P2;PMS_P1;PMS_P2;Temp;Humidity;BMP_temperature;BMP_pressure;BME280_temperature;BME280_humidity;BME280_pressure;Samples;Min_cycle;Max_cycle;Signal;HPM_P1;HPM_P2
2024/02/24 00:01:43;;;;;;;3.33;1.05;;;;;;;5.92;100.00;99337.22;6246870;28;20341;-75
2024/02/24 00:04:45;;;;;;;3.97;1.10;;;;;;;5.89;100.00;99337.34;6250291;28;20047;-75
2024/02/24 00:07:46;;;;;;;5.10;1.38;;;;;;;5.85;100.00;99337.53;6250106;28;20456;-76
2024/02/24 00:10:47;;;;;;;7.15;0.98;;;;;;;5.90;100.00;99339.03;6250303;28;20041;-75
2024/02/24 00:13:50;;;;;;;4.97;0.73;;;;;;;5.88;100.00;99333.91;6250343;28;20056;-74
2024/02/24 00:16:51;;;;;;;5.15;0.93;;;;;;;5.83;100.00;99338.56;6243033;28;20049;-75
2024/02/24 00:19:53;;;;;;;6.68;1.00;;;;;;;5.85;100.00;99342.72;6230552;28;20037;-75
2024/02/24 00:22:54;;;;;;;2.67;0.70;;;;;;;5.85;100.00;99337.53;6246710;28;20045;-76
2024/02/24 00:25:55;;;;;;;1.58;0.70;;;;;;;5.79;100.00;99340.47;6225421;28;20053;-76
2024/02/24 00:28:58;;;;;;;8.48;1.02;;;;;;;5.78;100.00;99349.25;6247397;28;20453;-75
2024/02/24 00:32:00;;;;;;;2.20;0.70;;;;;;;5.78;100.00;99335.38;6250248;28;20049;-75
2024/02/24 00:35:01;;;;;;;4.38;1.10;;;;;;;5.81;100.00;99337.78;6250139;28;20050;-76
2024/02/24 00:38:03;;;;;;;1.08;0.60;;;;;;;5.75;100.00;99336.38;6249522;28;20128;-75
2024/02/24 00:41:04;;;;;;;2.92;0.60;;;;;;;5.70;100.00;99329.75;6250122;28;20053;-75
2024/02/24 00:44:09;;;;;;;2.17;0.63;;;;;;;5.71;100.00;99326.19;6249825;28;20064;-76
2024/02/24 00:47:10;;;;;;;4.38;0.70;;;;;;;5.78;100.00;99331.00;6250312;28;20049;-76
2024/02/24 00:50:12;;;;;;;1.20;0.50;;;;;;;5.77;100.00;99331.94;6249500;28;20056;-76
2024/02/24 00:53:13;;;;;;;1.67;0.75;;;;;;;5.82;100.00;99327.28;6249799;28;20053;-76
2024/02/24 00:56:15;;;;;;;2.05;0.70;;;;;;;5.83;100.00;99325.50;6249708;28;20057;-76
2024/02/24 00:59:17;;;;;;;2.53;0.63;;;;;;;5.83;100.00;99336.78;6233337;28;20053;-75
2024/02/24 01:02:19;;;;;;;3.75;0.90;;;;;;;5.88;100.00;99340.91;6249921;28;20052;-75
2024/02/24 01:05:20;;;;;;;3.17;0.93;;;;;;;5.87;100.00;99336.63;6250648;28;20453;-75
2024/02/24 01:08:22;;;;;;;7.85;0.70;;;;;;;5.82;100.00;99329.91;6253772;28;20049;-75
2024/02/24 01:11:23;;;;;;;3.50;1.00;;;;;;;5.73;100.00;99335.63;6254351;28;20060;-75
2024/02/24 01:14:26;;;;;;;1.15;0.50;;;;;;;5.74;100.00;99324.25;6254235;28;20053;-75
2024/02/24 01:17:27;;;;;;;4.95;0.80;;;;;;;5.74;100.00;99324.25;6254260;28;20132;-75
2024/02/24 01:20:29;;;;;;;1.98;0.47;;;;;;;5.74;100.00;99324.25;6254011;28;20045;-76
2024/02/24 01:23:30;;;;;;;0.88;0.82;;;;;;;5.70;100.00;99329.75;6254391;28;20050;-76
2024/02/24 01:26:31;;;;;;;2.20;0.77;;;;;;;5.68;100.00;99322.00;6253966;28;20060;-76
2024/02/24 01:29:34;;;;;;;1.17;0.73;;;;;;;5.67;100.00;99324.69;6254021;28;20325;-76
2024/02/24 01:32:35;;;;;;;5.38;0.68;;;;;;;5.59;100.00;99338.16;6251147;28;20349;-76
2024/02/24 01:35:37;;;;;;;6.43;0.80;;;;;;;5.52;100.00;99335.03;6248506;28;20132;-76
2024/02/24 01:38:38;;;;;;;3.75;0.70;;;;;;;5.49;100.00;99336.97;6253414;28;20045;-76
2024/02/24 01:41:39;;;;;;;5.07;0.68;;;;;;;5.44;100.00;99332.00;6253751;28;20357;-74
2024/02/24 01:44:42;;;;;;;2.28;0.60;;;;;;;5.47;100.00;99331.84;6253476;28;20049;-75
2024/02/24 01:47:44;;;;;;;1.55;0.70;;;;;;;5.50;100.00;99341.28;6297521;22;20051;-73
2024/02/24 01:50:47;;;;;;;3.45;0.95;;;;;;;5.42;100.00;99333.03;6314954;28;20049;-73
2024/02/24 01:53:48;;;;;;;8.48;1.00;;;;;;;5.42;100.00;99335.63;6314705;28;20127;-73
2024/02/24 01:56:50;;;;;;;4.22;0.75;;;;;;;5.39;100.00;99341.84;6319615;28;20051;-72
2024/02/24 01:59:54;;;;;;;2.83;0.70;;;;;;;5.37;100.00;99333.28;6327726;28;20440;-73
2024/02/24 02:02:55;;;;;;;1.08;0.55;;;;;;;5.38;100.00;99323.72;6328037;28;20458;-73
2024/02/24 02:05:57;;;;;;;1.08;0.60;;;;;;;5.38;100.00;99327.16;6327468;28;20048;-73
2024/02/24 02:08:59;;;;;;;7.55;1.13;;;;;;;5.39;100.00;99339.25;6327248;28;20044;-72
2024/02/24 02:12:00;;;;;;;2.53;0.77;;;;;;;5.40;100.00;99335.72;6327627;28;20076;-73
2024/02/24 02:15:04;;;;;;;1.95;0.70;;;;;;;5.39;100.00;99339.25;6327482;28;20048;-73
2024/02/24 02:18:06;;;;;;;7.47;0.80;;;;;;;5.38;100.00;99334.97;6326069;28;20437;-73
2024/02/24 02:21:08;;;;;;;2.20;0.80;;;;;;;5.34;100.00;99330.84;6314775;28;20352;-74
2024/02/24 02:24:11;;;;;;;3.80;1.00;;;;;;;5.33;100.00;99330.00;6309406;28;20047;-75
2024/02/24 02:27:13;;;;;;;1.33;0.80;;;;;;;5.34;100.00;99329.06;6327372;28;20131;-73
2024/02/24 02:30:15;;;;;;;5.55;1.25;;;;;;;5.34;100.00;99329.06;6326694;28;20039;-75
2024/02/24 02:33:16;;;;;;;1.20;0.65;;;;;;;5.38;100.00;99329.75;6327422;28;20044;-75
2024/02/24 02:36:17;;;;;;;1.13;0.73;;;;;;;5.33;100.00;99339.59;6310538;28;20052;-75
2024/02/24 02:39:20;;;;;;;2.08;1.33;;;;;;;5.30;100.00;99339.75;6326715;28;20454;-75
2024/02/24 02:42:22;;;;;;;6.80;0.68;;;;;;;5.26;100.00;99340.84;6326652;28;20439;-74
2024/02/24 02:45:23;;;;;;;5.35;0.75;;;;;;;5.24;100.00;99340.91;6326616;28;20436;-75
2024/02/24 02:48:24;;;;;;;1.52;0.70;;;;;;;5.24;100.00;99346.13;6326411;28;20052;-74
2024/02/24 02:51:26;;;;;;;1.83;0.75;;;;;;;5.22;100.00;99347.13;6326814;28;20044;-73
2024/02/24 02:54:28;;;;;;;1.83;0.70;;;;;;;5.22;100.00;99344.53;6326598;28;20048;-75
2024/02/24 02:57:30;;;;;;;7.40;0.73;;;;;;;5.24;100.00;99345.28;6326514;28;20440;-75
2024/02/24 03:00:31;;;;;;;1.85;0.93;;;;;;;5.23;100.00;99343.63;6326278;28;20048;-75
2024/02/24 03:03:32;;;;;;;4.93;1.10;;;;;;;5.25;100.00;99347.81;6326343;28;20043;-75
2024/02/24 03:06:33;;;;;;;3.15;1.00;;;;;;;5.21;100.00;99350.66;6326241;28;20044;-73
2024/02/24 03:09:36;;;;;;;2.55;0.90;;;;;;;5.17;100.00;99349.13;6325911;28;20044;-75
2024/02/24 03:12:38;;;;;;;4.28;0.70;;;;;;;5.17;100.00;99349.13;6326257;28;20248;-74
2024/02/24 03:15:39;;;;;;;1.65;1.00;;;;;;;5.19;100.00;99350.75;6326214;28;20044;-73
2024/02/24 03:18:42;;;;;;;2.63;1.00;;;;;;;5.23;100.00;99356.66;6325421;28;20047;-75
2024/02/24 03:21:44;;;;;;;0.98;0.52;;;;;;;5.24;100.00;99358.31;6326199;28;20047;-74
2024/02/24 03:24:46;;;;;;;1.40;0.60;;;;;;;5.29;100.00;99362.34;6325691;28;20047;-75
2024/02/24 03:27:48;;;;;;;1.73;0.90;;;;;;;5.33;100.00;99368.25;6325319;28;20100;-75
2024/02/24 03:30:49;;;;;;;3.25;0.88;;;;;;;5.37;100.00;99367.16;6325782;28;20043;-73
2024/02/24 03:33:50;;;;;;;1.75;0.75;;;;;;;5.43;100.00;99376.41;6325673;28;20051;-73
2024/02/24 03:36:52;;;;;;;5.05;0.93;;;;;;;5.42;100.00;99372.94;6325582;28;20360;-75
2024/02/24 03:39:54;;;;;;;1.27;0.43;;;;;;;5.42;100.00;99379.94;6308034;28;20036;-75
2024/02/24 03:42:55;;;;;;;2.72;0.93;;;;;;;5.40;100.00;99380.00;6325740;28;20451;-72
2024/02/24 03:45:57;;;;;;;1.90;0.75;;;;;;;5.42;100.00;99375.56;6322342;28;20044;-75
2024/02/24 03:48:58;;;;;;;3.25;1.55;;;;;;;5.40;100.00;99374.78;6311986;28;20056;-73
2024/02/24 03:51:59;;;;;;;2.63;0.65;;;;;;;5.44;100.00;99375.47;6294527;28;20064;-75
2024/02/24 03:55:02;;;;;;;2.08;0.68;;;;;;;5.41;100.00;99368.66;6294932;28;20393;-75
2024/02/24 03:58:04;;;;;;;3.83;0.90;;;;;;;5.40;100.00;99366.97;6305418;28;20319;-75
2024/02/24 04:01:05;;;;;;;2.15;0.77;;;;;;;5.43;100.00;99366.81;6315041;28;20055;-75
2024/02/24 04:04:07;;;;;;;5.50;1.42;;;;;;;5.45;100.00;99369.31;6325141;28;20044;-72
2024/02/24 04:07:08;;;;;;;1.85;0.52;;;;;;;5.45;100.00;99378.00;6325131;28;20051;-75
2024/02/24 04:10:11;;;;;;;3.35;0.90;;;;;;;5.38;100.00;99370.59;6324430;28;20048;-73
2024/02/24 04:13:13;;;;;;;3.22;0.65;;;;;;;5.39;100.00;99373.09;6325354;28;20044;-75
2024/02/24 04:16:14;;;;;;;1.67;0.68;;;;;;;5.41;100.00;99371.28;6309826;28;20049;-74
2024/02/24 04:19:15;;;;;;;1.83;0.68;;;;;;;5.42;100.00;99379.94;6307303;28;20471;-75
2024/02/24 04:22:17;;;;;;;2.08;0.73;;;;;;;5.44;100.00;99378.91;6324926;28;20048;-75
2024/02/24 04:25:19;;;;;;;0.85;0.55;;;;;;;5.47;100.00;99385.72;6324769;28;20052;-75
2024/02/24 04:28:22;;;;;;;4.13;0.77;;;;;;;5.49;100.00;99384.69;6308055;28;20048;-74
2024/02/24 04:31:23;;;;;;;6.75;0.73;;;;;;;5.45;100.00;99387.56;6324802;28;20425;-75
2024/02/24 04:34:25;;;;;;;3.28;0.98;;;;;;;5.41;100.00;99393.88;6324531;28;20122;-75
2024/02/24 04:37:26;;;;;;;1.67;1.23;;;;;;;5.44;100.00;99393.69;6324977;28;20052;-73
2024/02/24 04:40:28;;;;;;;2.83;0.80;;;;;;;5.46;100.00;99389.25;6325642;28;20407;-75
2024/02/24 04:43:30;;;;;;;3.67;1.02;;;;;;;5.45;100.00;99395.38;6330111;28;20055;-75
2024/02/24 04:46:32;;;;;;;2.47;0.60;;;;;;;5.44;100.00;99401.50;6325133;28;20059;-75
2024/02/24 04:49:34;;;;;;;3.25;1.02;;;;;;;5.46;100.00;99397.09;6305933;28;20084;-73
2024/02/24 04:52:35;;;;;;;3.90;1.08;;;;;;;5.47;100.00;99406.56;6329799;28;20436;-75
2024/02/24 04:55:38;;;;;;;2.83;1.13;;;;;;;5.53;100.00;99406.22;6329225;28;20055;-75
2024/02/24 04:58:39;;;;;;;2.60;0.75;;;;;;;5.54;100.00;99407.91;6329090;28;20043;-75
2024/02/24 05:01:41;;;;;;;2.65;1.20;;;;;;;5.52;100.00;99414.97;6329398;28;20051;-75
2024/02/24 05:04:42;;;;;;;1.95;0.85;;;;;;;5.53;100.00;99424.47;6329263;28;20044;-73
2024/02/24 05:07:44;;;;;;;5.25;1.00;;;;;;;5.53;100.00;99420.09;6329165;28;20048;-75
2024/02/24 05:10:47;;;;;;;1.65;0.93;;;;;;;5.60;100.00;99428.44;6329011;28;20352;-72
2024/02/24 05:13:48;;;;;;;1.33;0.60;;;;;;;5.60;100.00;99434.50;6328936;28;20048;-74
2024/02/24 05:16:49;;;;;;;0.70;0.70;;;;;;;5.63;100.00;99423.03;6329091;28;20454;-75
2024/02/24 05:19:51;;;;;;;3.60;1.33;;;;;;;5.63;100.00;99430.84;6328813;28;20036;-75
2024/02/24 05:22:52;;;;;;;3.22;0.98;;;;;;;5.66;100.00;99425.50;6328816;28;20047;-75
2024/02/24 05:25:55;;;;;;;6.85;0.90;;;;;;;5.58;100.00;99431.09;6328978;28;20048;-75
2024/02/24 05:28:57;;;;;;;5.40;1.42;;;;;;;5.61;100.00;99440.53;6328240;28;20051;-75
2024/02/24 05:31:59;;;;;;;1.38;0.88;;;;;;;5.52;100.00;99441.03;6320399;28;20436;-75
2024/02/24 05:35:00;;;;;;;3.17;0.63;;;;;;;5.45;100.00;99434.44;6328385;28;20048;-75
2024/02/24 05:38:02;;;;;;;3.25;1.00;;;;;;;5.40;100.00;99426.03;6321032;28;20051;-75
2024/02/24 05:41:04;;;;;;;3.80;0.80;;;;;;;5.34;100.00;99432.44;6309135;28;20360;-75
2024/02/24 05:44:06;;;;;;;4.03;1.35;;;;;;;5.29;100.00;99440.50;6328587;28;20458;-75
2024/02/24 05:47:08;;;;;;;6.90;1.10;;;;;;;5.31;100.00;99440.41;6328272;28;20142;-75
2024/02/24 05:50:10;;;;;;;4.05;1.30;;;;;;;5.27;100.00;99441.50;6307025;28;20060;-75
2024/02/24 05:53:11;;;;;;;5.57;1.75;;;;;;;5.24;100.00;99447.69;6306244;28;20356;-75
2024/02/24 05:56:14;;;;;;;3.83;0.93;;;;;;;5.17;100.00;99445.50;6293765;28;20125;-75
2024/02/24 05:59:16;;;;;;;2.35;0.90;;;;;;;5.11;100.00;99454.47;6301830;28;20131;-75
2024/02/24 06:02:17;;;;;;;4.78;1.13;;;;;;;5.07;100.00;99455.53;6327384;28;20040;-75
2024/02/24 06:05:18;;;;;;;0.77;0.75;;;;;;;4.98;100.00;99448.22;6316133;28;20049;-75
2024/02/24 06:08:20;;;;;;;7.45;2.97;;;;;;;4.95;100.00;99445.75;6310499;28;20063;-74
2024/02/24 06:11:22;;;;;;;4.70;1.00;;;;;;;4.93;100.00;99460.63;6328112;28;20044;-75
2024/02/24 06:14:24;;;;;;;2.10;0.95;;;;;;;4.91;100.00;99473.72;6304641;28;20045;-75
2024/02/24 06:17:25;;;;;;;3.78;0.80;;;;;;;4.90;100.00;99474.63;6303199;28;20055;-75
2024/02/24 06:20:27;;;;;;;7.18;1.08;;;;;;;4.89;100.00;99472.09;6327237;28;20123;-75
2024/02/24 06:23:29;;;;;;;2.55;0.98;;;;;;;4.89;100.00;99477.31;6327587;28;20347;-75
2024/02/24 06:26:32;;;;;;;2.38;1.25;;;;;;;4.87;100.00;99473.97;6327361;28;20052;-74
2024/02/24 06:29:33;;;;;;;1.85;0.70;;;;;;;4.89;100.00;99488.56;6326765;28;20044;-74
2024/02/24 06:32:35;;;;;;;2.08;0.95;;;;;;;4.91;100.00;99489.34;6327222;28;20356;-74
2024/02/24 06:35:36;;;;;;;1.75;0.80;;;;;;;4.89;100.00;99496.38;6317327;28;20052;-75
2024/02/24 06:38:37;;;;;;;2.58;0.93;;;;;;;5.03;100.00;99498.28;6303759;28;20059;-74
2024/02/24 06:41:40;;;;;;;1.45;0.88;;;;;;;5.05;100.00;99497.28;6327051;28;20048;-75
2024/02/24 06:44:42;;;;;;;3.80;1.00;;;;;;;5.09;100.00;99500.59;6326860;28;20455;-74
2024/02/24 06:47:43;;;;;;;1.70;0.90;;;;;;;5.18;100.00;99501.84;6326726;28;20133;-74
2024/02/24 06:50:44;;;;;;;6.57;1.25;;;;;;;5.22;100.00;99506.00;6323815;28;20487;-75
2024/02/24 06:53:46;;;;;;;3.75;0.95;;;;;;;5.25;100.00;99511.06;6321436;28;20060;-75
2024/02/24 06:56:48;;;;;;;1.52;0.90;;;;;;;5.31;100.00;99518.53;6323320;28;20350;-75
2024/02/24 06:59:50;;;;;;;3.47;1.27;;;;;;;5.38;100.00;99524.28;6321736;28;20052;-75
2024/02/24 07:02:53;;;;;;;5.28;0.90;;;;;;;5.43;100.00;99525.72;6325867;28;20494;-75
2024/02/24 07:05:54;;;;;;;2.70;0.70;;;;;;;5.52;100.00;99524.41;6326382;28;20048;-74
2024/02/24 07:08:55;;;;;;;3.75;0.70;;;;;;;5.62;100.00;99527.38;6325750;28;20044;-75
2024/02/24 07:11:58;;;;;;;3.88;1.10;;;;;;;5.72;100.00;99531.16;6326427;28;20351;-75
2024/02/24 07:14:59;;;;;;;2.25;0.80;;;;;;;5.78;100.00;99530.88;6325917;28;20059;-75
2024/02/24 07:18:01;;;;;;;2.40;0.95;;;;;;;5.74;100.00;99538.00;6325781;28;20055;-75
2024/02/24 07:21:02;;;;;;;8.05;1.55;;;;;;;5.84;100.00;99541.78;6326229;28;20048;-75
2024/02/24 07:24:04;;;;;;;1.55;0.80;;;;;;;5.97;100.00;99544.63;6326147;28;20068;-76
2024/02/24 07:27:07;;;;;;;2.70;0.90;;;;;;;6.05;100.00;99544.22;6326174;28;20048;-75
2024/02/24 07:30:09;;;;;;;3.35;0.85;;;;;;;6.09;100.00;99562.22;6325327;28;20048;-75
2024/02/24 07:33:10;;;;;;;1.75;1.00;;;;;;;6.16;100.00;99556.69;6326023;28;20052;-75
2024/02/24 07:36:11;;;;;;;2.47;1.00;;;;;;;6.13;100.00;99559.44;6325371;28;20051;-75
2024/02/24 07:39:13;;;;;;;1.75;0.80;;;;;;;6.17;100.00;99567.00;6325227;28;20059;-75
2024/02/24 07:42:17;;;;;;;1.33;0.80;;;;;;;6.23;100.00;99578.91;6310803;28;20413;-75
2024/02/24 07:45:18;;;;;;;5.20;0.95;;;;;;;6.24;100.00;99578.81;6303533;28;20056;-75
2024/02/24 07:48:19;;;;;;;1.80;0.82;;;;;;;6.27;100.00;99578.66;6305574;22;20048;-76
2024/02/24 07:51:21;;;;;;;5.50;1.02;;;;;;;6.29;100.00;99574.19;6287637;28;20041;-76
2024/02/24 07:54:22;;;;;;;5.70;1.02;;;;;;;6.47;100.00;99581.94;6290064;28;20055;-76
2024/02/24 07:57:25;;;;;;;7.70;1.30;;;;;;;6.47;100.00;99584.53;6281499;28;20045;-76
2024/02/24 08:00:26;;;;;;;2.08;1.05;;;;;;;6.61;100.00;99584.63;6262565;28;20044;-76
2024/02/24 08:03:28;;;;;;;4.15;0.73;;;;;;;6.68;100.00;99590.34;6262625;28;20058;-75
2024/02/24 08:06:29;;;;;;;4.90;1.10;;;;;;;6.72;100.00;99584.88;6262905;28;20052;-76
2024/02/24 08:09:30;;;;;;;4.18;1.20;;;;;;;6.80;100.00;99580.03;6262727;28;20041;-76
2024/02/24 08:12:33;;;;;;;2.42;0.77;;;;;;;6.76;100.00;99582.91;6262470;28;20048;-76
2024/02/24 08:15:34;;;;;;;2.22;0.73;;;;;;;6.85;100.00;99585.84;6263862;28;20049;-76
2024/02/24 08:18:36;;;;;;;1.92;0.80;;;;;;;6.97;100.00;99597.38;6262028;28;20045;-75
2024/02/24 08:21:37;;;;;;;2.63;1.13;;;;;;;6.96;100.00;99593.09;6261832;28;20076;-76
2024/02/24 08:24:39;;;;;;;9.57;1.10;;;;;;;7.05;100.00;99596.94;6263677;28;20068;-75
2024/02/24 08:27:41;;;;;;;1.67;0.82;;;;;;;6.98;100.00;99593.81;6263936;28;20064;-76
2024/02/24 08:30:43;;;;;;;4.20;1.20;;;;;;;7.09;100.00;99599.28;6263725;28;20045;-75
2024/02/24 08:33:44;;;;;;;6.40;1.50;;;;;;;7.11;100.00;99593.97;6261451;28;20056;-74
2024/02/24 08:36:46;;;;;;;5.70;1.10;;;;;;;7.15;100.00;99600.72;6263636;28;20045;-75
2024/02/24 08:39:47;;;;;;;1.40;1.00;;;;;;;7.16;100.00;99601.53;6263646;28;20509;-75
2024/02/24 08:42:50;;;;;;;7.95;1.15;;;;;;;7.20;100.00;99597.81;6265318;28;20044;-76
2024/02/24 08:45:51;;;;;;;3.35;1.35;;;;;;;7.14;100.00;99606.88;6263415;28;20331;-75
2024/02/24 08:48:54;;;;;;;1.70;1.13;;;;;;;7.11;100.00;99600.03;6262844;28;20048;-76
2024/02/24 08:51:55;;;;;;;2.08;1.08;;;;;;;7.20;100.00;99603.88;6263352;28;20179;-76
2024/02/24 08:54:56;;;;;;;1.88;0.90;;;;;;;7.24;100.00;99602.78;6265918;28;20048;-75
2024/02/24 08:57:59;;;;;;;4.30;1.10;;;;;;;7.31;100.00;99611.97;6260935;28;20060;-75
2024/02/24 09:01:00;;;;;;;6.47;1.00;;;;;;;7.31;100.00;99622.41;6261730;28;20358;-76
2024/02/24 09:04:03;;;;;;;4.38;1.05;;;;;;;7.40;100.00;99615.78;6263312;28;20060;-75
2024/02/24 09:07:04;;;;;;;3.67;0.90;;;;;;;7.43;100.00;99625.22;6263364;28;20060;-76
2024/02/24 09:10:07;;;;;;;2.38;0.82;;;;;;;7.51;100.00;99626.47;6262580;28;20045;-76
2024/02/24 09:13:10;;;;;;;1.70;0.93;;;;;;;7.67;100.00;99621.16;6263202;28;20046;-75
2024/02/24 09:16:15;;;;;;;5.40;1.08;;;;;;;7.77;100.00;99616.25;6262902;28;20045;-75
2024/02/24 09:19:19;;;;;;;3.08;1.42;;;;;;;7.76;100.00;99620.63;6259124;28;20063;-76
2024/02/24 09:22:20;;;;;;;17.55;1.95;;;;;;;7.85;100.00;99617.44;6260955;28;20063;-74
2024/02/24 09:25:22;;;;;;;21.45;2.47;;;;;;;7.97;100.00;99623.72;6258295;28;20052;-75
2024/02/24 09:28:24;;;;;;;2.63;1.02;;;;;;;8.02;100.00;99619.06;6262188;28;20437;-75
2024/02/24 09:31:27;;;;;;;6.68;1.13;;;;;;;8.04;100.00;99629.41;6279090;28;20044;-75
2024/02/24 09:34:29;;;;;;;2.60;0.80;;;;;;;8.08;100.00;99630.91;6253934;28;20045;-75
2024/02/24 09:37:30;;;;;;;1.58;0.90;;;;;;;8.16;100.00;99638.31;6254023;28;20053;-76
2024/02/24 09:40:31;;;;;;;1.23;0.73;;;;;;;8.17;100.00;99648.66;6253310;28;20075;-75
2024/02/24 09:43:35;;;;;;;3.97;0.80;;;;;;;8.14;100.00;99647.09;6253843;28;20056;-74
2024/02/24 09:46:37;;;;;;;1.48;0.70;;;;;;;8.19;100.00;99653.81;6253622;28;20434;-75
2024/02/24 09:49:39;;;;;;;1.58;0.65;;;;;;;8.25;100.00;99653.44;6253332;28;20056;-75
2024/02/24 09:52:41;;;;;;;5.75;0.60;;;;;;;8.33;100.00;99648.59;6253717;28;20045;-75
2024/02/24 09:55:43;;;;;;;6.97;0.80;;;;;;;8.42;100.00;99642.81;6253272;28;20430;-75
2024/02/24 09:58:47;;;;;;;1.20;0.60;;;;;;;8.55;98.69;99622.78;6252867;28;20175;-75
2024/02/24 10:01:48;;;;;;;4.78;1.23;;;;;;;8.72;100.00;99629.59;6256034;28;20349;-75
2024/02/24 10:04:53;;;;;;;1.92;0.70;;;;;;;8.85;96.86;99633.06;6263585;28;20052;-75
2024/02/24 10:07:54;;;;;;;1.25;0.95;;;;;;;8.70;95.89;99630.59;6271922;28;20068;-75
2024/02/24 10:10:56;;;;;;;1.13;0.70;;;;;;;8.68;96.65;99642.97;6277674;28;20056;-75
2024/02/24 10:13:59;;;;;;;4.05;1.05;;;;;;;8.64;95.45;99637.91;6277014;28;20064;-75
2024/02/24 10:17:00;;;;;;;1.27;0.73;;;;;;;8.73;97.53;99639.13;6269042;28;20041;-75
2024/02/24 10:20:02;;;;;;;1.35;0.80;;;;;;;8.66;97.63;99636.97;6258889;28;20089;-75
2024/02/24 10:23:03;;;;;;;1.70;0.80;;;;;;;8.71;97.87;99643.59;6261432;28;20061;-75
2024/02/24 10:26:05;;;;;;;2.35;0.88;;;;;;;8.68;98.85;99642.97;6262723;28;20433;-74
2024/02/24 10:29:08;;;;;;;6.25;0.75;;;;;;;8.67;99.06;99639.47;6254992;28;20049;-76
2024/02/24 10:32:10;;;;;;;1.55;0.80;;;;;;;8.85;98.75;99638.31;6252837;28;20593;-76
2024/02/24 10:35:11;;;;;;;1.52;0.80;;;;;;;9.01;97.93;99635.56;6253781;28;20049;-75
2024/02/24 10:38:13;;;;;;;1.45;0.82;;;;;;;8.98;93.37;99640.16;6267366;28;20053;-75
2024/02/24 10:41:16;;;;;;;0.90;0.75;;;;;;;9.09;94.44;99642.94;6279316;28;20053;-75
2024/02/24 10:44:21;;;;;;;1.52;0.77;;;;;;;9.17;94.96;99653.75;6278942;28;20381;-75
2024/02/24 10:47:23;;;;;;;1.23;0.60;;;;;;;9.14;90.94;99657.41;6278307;28;20063;-75
2024/02/24 10:50:25;;;;;;;0.65;0.63;;;;;;;9.10;91.47;99658.56;6276653;28;20060;-74
2024/02/24 10:53:31;;;;;;;1.30;0.82;;;;;;;9.14;91.80;99654.78;6276850;28;20356;-75
2024/02/24 10:56:32;;;;;;;1.60;0.80;;;;;;;9.19;92.89;99651.88;6276525;28;20049;-75
2024/02/24 10:59:35;;;;;;;3.15;0.88;;;;;;;9.42;93.43;99655.59;6267306;28;20052;-75
2024/02/24 11:02:36;;;;;;;1.30;0.77;;;;;;;9.47;89.63;99656.13;6252210;28;20485;-75
2024/02/24 11:05:38;;;;;;;2.03;1.23;;;;;;;9.59;90.77;99651.88;6251887;28;20060;-75
2024/02/24 11:08:43;;;;;;;2.75;0.98;;;;;;;9.66;88.56;99651.34;6251678;28;20068;-76
2024/02/24 11:11:45;;;;;;;0.75;0.65;;;;;;;9.69;87.03;99660.81;6252028;28;20056;-77
2024/02/24 11:14:48;;;;;;;1.80;1.02;;;;;;;9.68;88.74;99667.00;6251445;28;20049;-77
2024/02/24 11:17:51;;;;;;;4.80;0.95;;;;;;;9.63;86.19;99664.69;6251231;28;20045;-76
2024/02/24 11:20:53;;;;;;;0.90;0.75;;;;;;;9.58;86.00;99665.91;6251608;28;20373;-76
2024/02/24 11:23:54;;;;;;;1.27;0.95;;;;;;;9.59;86.96;99670.22;6250847;28;20087;-76
2024/02/24 11:26:56;;;;;;;1.55;0.73;;;;;;;9.59;88.06;99671.06;6251520;28;20049;-76
2024/02/24 11:29:59;;;;;;;4.35;0.90;;;;;;;9.62;89.50;99667.38;6259931;28;20057;-77
2024/02/24 11:33:21;;;;;;;1.48;0.95;;;;;;;9.83;87.91;99670.38;6251375;28;20041;-76
2024/02/24 11:36:23;;;;;;;2.58;1.13;;;;;;;9.88;84.93;99669.09;6250960;28;20064;-77
2024/02/24 11:39:26;;;;;;;2.15;0.90;;;;;;;9.95;85.18;99674.78;6275463;28;20044;-77
2024/02/24 11:42:28;;;;;;;3.80;0.75;;;;;;;9.69;82.49;99679.16;6275755;28;20051;-78
2024/02/24 11:45:30;;;;;;;3.83;1.75;;;;;;;9.74;83.47;99673.59;6271246;28;20045;-75
2024/02/24 11:48:32;;;;;;;1.33;0.75;;;;;;;9.50;82.94;99673.47;6274337;28;20053;-77
2024/02/24 11:51:33;;;;;;;2.65;1.17;;;;;;;9.59;84.44;99673.69;6261298;28;20049;-77
2024/02/24 11:54:37;;;;;;;1.88;0.75;;;;;;;9.69;84.49;99665.22;6260863;28;20081;-76
2024/02/24 11:57:38;;;;;;;1.90;1.20;;;;;;;9.87;84.38;99670.06;6260896;28;20068;-76
2024/02/24 12:00:41;;;;;;;3.65;0.70;;;;;;;10.07;84.33;99670.47;6262476;28;20045;-76
2024/02/24 12:03:49;;;;;;;1.95;0.82;;;;;;;10.24;85.59;99669.31;6265087;28;20045;-77
2024/02/24 12:06:51;;;;;;;1.00;0.70;;;;;;;10.15;82.21;99666.38;6262718;28;20469;-75
2024/02/24 12:09:52;;;;;;;2.28;1.00;;;;;;;10.12;82.74;99665.75;6250218;28;20046;-75
2024/02/24 12:12:54;;;;;;;1.52;0.55;;;;;;;10.03;79.12;99661.97;6255351;28;20123;-75
2024/02/24 12:15:57;;;;;;;1.77;1.02;;;;;;;9.97;80.49;99657.16;6269874;28;20052;-76
2024/02/24 12:18:59;;;;;;;1.52;0.77;;;;;;;10.08;79.99;99665.13;6269575;28;20430;-76
2024/02/24 12:22:00;;;;;;;2.60;0.75;;;;;;;9.97;79.66;99666.81;6263284;28;20463;-76
2024/02/24 12:25:12;;;;;;;1.50;0.82;;;;;;;9.93;79.49;99666.16;6268626;28;20477;-75
2024/02/24 12:28:14;;;;;;;2.42;0.90;;;;;;;9.98;80.65;99669.31;6260541;28;20087;-75
2024/02/24 12:31:18;;;;;;;1.75;0.75;;;;;;;9.97;80.07;99672.88;6257494;28;20362;-75
2024/02/24 12:34:19;;;;;;;1.73;0.70;;;;;;;9.87;80.51;99674.47;6261627;28;20041;-78
2024/02/24 12:37:21;;;;;;;1.38;0.65;;;;;;;9.75;81.10;99675.28;6261915;28;20132;-75
2024/02/24 12:40:29;;;;;;;4.53;1.10;;;;;;;9.69;82.17;99671.28;6260082;28;20053;-75
2024/02/24 12:43:30;;;;;;;3.33;0.80;;;;;;;9.57;82.03;99675.56;6266864;28;20060;-73
2024/02/24 12:46:33;;;;;;;0.80;0.70;;;;;;;9.43;85.29;99693.16;6274571;28;20049;-72
2024/02/24 12:49:34;;;;;;;5.47;0.88;;;;;;;8.97;100.00;99704.00;6274413;28;20053;-72
2024/02/24 12:52:35;;;;;;;1.10;0.80;;;;;;;8.48;100.00;99714.88;6272032;28;20042;-73
2024/02/24 12:55:37;;;;;;;1.67;0.82;;;;;;;7.97;100.00;99717.91;6258010;28;20064;-75
2024/02/24 12:58:38;;;;;;;2.03;0.77;;;;;;;7.93;100.00;99721.63;6262213;28;20049;-74
2024/02/24 13:01:41;;;;;;;1.92;0.80;;;;;;;7.88;100.00;99721.91;6276684;28;20076;-72
2024/02/24 13:04:43;;;;;;;1.40;0.90;;;;;;;8.14;100.00;99724.75;6271612;28;20056;-72
2024/02/24 13:07:44;;;;;;;1.35;0.70;;;;;;;8.23;100.00;99723.38;6264689;28;20429;-71
2024/02/24 13:10:46;;;;;;;2.30;0.90;;;;;;;8.41;100.00;99718.84;6265121;28;20443;-72
2024/02/24 13:13:47;;;;;;;1.13;0.60;;;;;;;8.78;100.00;99720.88;6254322;28;20063;-73
2024/02/24 13:16:50;;;;;;;2.58;0.70;;;;;;;9.13;100.00;99723.06;6258474;28;20064;-73
2024/02/24 13:19:51;;;;;;;4.60;0.57;;;;;;;9.04;100.00;99721.00;6265795;28;20354;-72
2024/02/24 13:22:53;;;;;;;3.95;0.93;;;;;;;8.94;100.00;99718.09;6265105;28;20132;-73
2024/02/24 13:25:54;;;;;;;0.50;0.50;;;;;;;8.86;100.00;99721.22;6267269;28;20045;-73
2024/02/24 13:28:55;;;;;;;1.83;0.68;;;;;;;8.85;100.00;99722.16;6265627;28;20468;-73
2024/02/24 13:31:58;;;;;;;1.35;0.75;;;;;;;8.77;100.00;99721.81;6269640;28;20053;-73
2024/02/24 13:34:59;;;;;;;0.40;0.40;;;;;;;8.55;100.00;99735.38;6265487;28;20057;-71
2024/02/24 13:38:01;;;;;;;2.15;0.57;;;;;;;8.33;100.00;99740.19;6267240;28;20050;-72
2024/02/24 13:41:02;;;;;;;1.13;0.60;;;;;;;8.10;100.00;99738.97;6267314;28;20135;-72
2024/02/24 13:44:05;;;;;;;1.67;0.90;;;;;;;8.06;100.00;99751.38;6265274;28;20061;-72
2024/02/24 13:47:08;;;;;;;0.85;0.73;;;;;;;7.68;100.00;99756.22;6263978;28;20065;-73
2024/02/24 13:50:11;;;;;;;3.40;0.60;;;;;;;7.55;100.00;99758.69;6267428;28;20076;-72
2024/02/24 13:53:12;;;;;;;0.52;0.50;;;;;;;7.25;100.00;99774.31;6274448;28;20045;-72
2024/02/24 13:56:13;;;;;;;0.50;0.43;;;;;;;7.18;100.00;99780.81;6270639;28;20049;-72
2024/02/24 13:59:15;;;;;;;1.10;0.60;;;;;;;7.02;100.00;99777.34;6265844;28;20048;-73
2024/02/24 14:02:17;;;;;;;0.82;0.60;;;;;;;7.11;100.00;99769.00;6256960;28;20055;-75
2024/02/24 14:05:19;;;;;;;0.70;0.70;;;;;;;7.50;100.00;99767.75;6268447;28;20048;-76
2024/02/24 14:08:20;;;;;;;0.98;0.80;;;;;;;7.73;100.00;99764.66;6269479;28;20357;-76
2024/02/24 14:11:22;;;;;;;0.75;0.75;;;;;;;8.03;100.00;99766.41;6273499;28;20557;-77
2024/02/24 14:14:23;;;;;;;0.70;0.57;;;;;;;8.50;100.00;99761.00;6269114;28;20041;-77
2024/02/24 14:17:27;;;;;;;1.38;0.60;;;;;;;9.03;100.00;99769.94;6270195;28;20135;-77